Time;durP1;ratioP1;P1;durP2;ratioP2;P2;SDS_P1;SDS_P2;PMS_P1;PMS_P2;Temp;Humidity;BMP_temperature;BMP_pressure;BME280_temperature;BME280_humidity;BME280_pressure;Samples;Min_cycle;Max_cycle;Signal;HPM_P1;HPM_P2
2023/04/15 00:01:36;;;;;;;1.10;1.00;;;20.80;67.80;;;;;;5021123;28;20216;-59
2023/04/15 00:04:03;;;;;;;1.20;0.90;;;20.80;67.80;;;;;;5020556;28;20204;-59
2023/04/15 00:06:30;;;;;;;1.20;0.90;;;20.80;67.80;;;;;;5024121;28;20330;-59
2023/04/15 00:08:57;;;;;;;1.17;0.98;;;20.80;67.90;;;;;;5017974;28;20204;-58
2023/04/15 00:11:24;;;;;;;1.33;1.00;;;20.80;68.70;;;;;;5015254;28;20201;-58
2023/04/15 00:13:50;;;;;;;1.30;0.90;;;20.80;67.90;;;;;;5018289;28;20227;-59
2023/04/15 00:16:18;;;;;;;1.45;0.70;;;20.80;68.00;;;;;;5010407;28;20197;-59
2023/04/15 00:18:45;;;;;;;1.10;0.80;;;20.80;68.00;;;;;;5017828;28;20218;-59
2023/04/15 00:21:12;;;;;;;1.30;0.90;;;20.80;68.40;;;;;;5017169;28;20699;-57
2023/04/15 00:23:39;;;;;;;2.40;0.80;;;20.80;67.70;;;;;;5008448;28;20225;-55
2023/04/15 00:26:06;;;;;;;1.00;0.70;;;20.80;67.90;;;;;;5003643;28;20201;-58
2023/04/15 00:28:32;;;;;;;1.20;0.85;;;20.80;67.90;;;;;;5011664;28;20593;-54
2023/04/15 00:30:59;;;;;;;1.40;0.90;;;20.90;68.10;;;;;;5010019;28;20588;-56
2023/04/15 00:33:27;;;;;;;1.00;0.88;;;20.80;67.90;;;;;;5016559;28;20266;-55
2023/04/15 00:35:54;;;;;;;1.00;0.82;;;20.80;67.90;;;;;;5016130;28;20204;-55
2023/04/15 00:38:20;;;;;;;1.20;1.00;;;20.80;67.80;;;;;;5012235;28;20208;-54
2023/04/15 00:40:47;;;;;;;2.95;1.48;;;20.80;67.80;;;;;;5013685;28;20228;-55
2023/04/15 00:43:15;;;;;;;1.30;0.90;;;20.80;67.80;;;;;;5023694;28;20211;-56
2023/04/15 00:45:42;;;;;;;2.30;1.00;;;20.80;67.70;;;;;;5012655;28;20200;-57
2023/04/15 00:48:09;;;;;;;1.10;0.82;;;20.80;67.80;;;;;;5019908;28;20656;-56
2023/04/15 00:50:37;;;;;;;0.90;0.73;;;20.80;67.90;;;;;;5019969;28;20576;-57
2023/04/15 00:53:04;;;;;;;1.20;1.00;;;20.80;67.80;;;;;;5009136;28;20193;-57
2023/04/15 00:55:30;;;;;;;1.10;0.90;;;20.80;67.80;;;;;;5027630;28;20576;-55
2023/04/15 00:57:57;;;;;;;1.30;0.80;;;20.80;67.70;;;;;;5020350;28;20255;-53
2023/04/15 01:00:24;;;;;;;1.20;1.00;;;20.80;67.80;;;;;;5007865;28;20704;-55
2023/04/15 01:02:51;;;;;;;1.48;1.00;;;20.80;67.70;;;;;;5012061;28;20205;-56
2023/04/15 01:05:18;;;;;;;1.00;0.88;;;20.80;67.60;;;;;;5015048;28;20243;-55
2023/04/15 01:07:47;;;;;;;1.40;0.80;;;20.80;67.70;;;;;;5012537;28;20632;-56
2023/04/15 01:10:14;;;;;;;0.90;0.68;;;20.80;67.60;;;;;;5007861;28;20278;-56
2023/04/15 01:12:41;;;;;;;2.42;1.25;;;20.80;67.70;;;;;;5016592;28;20205;-54
2023/04/15 01:15:09;;;;;;;1.10;0.70;;;20.80;67.60;;;;;;5009521;28;20193;-54
2023/04/15 01:17:36;;;;;;;1.08;0.82;;;20.80;67.60;;;;;;5010720;28;20209;-57
2023/04/15 01:20:04;;;;;;;1.10;0.88;;;20.80;67.60;;;;;;5012471;28;20193;-52
2023/04/15 01:22:32;;;;;;;2.28;1.08;;;20.80;67.60;;;;;;5010367;28;20224;-55
2023/04/15 01:25:09;;;;;;;1.10;0.70;;;20.80;67.60;;;;;;5022662;28;20196;-54
2023/04/15 01:27:39;;;;;;;2.38;0.90;;;20.70;67.50;;;;;;5009449;28;20549;-57
2023/04/15 01:30:08;;;;;;;1.10;0.80;;;20.80;67.60;;;;;;5006672;28;20199;-55
2023/04/15 01:32:34;;;;;;;1.27;0.85;;;20.70;67.50;;;;;;5019744;28;20657;-54
2023/04/15 01:35:01;;;;;;;1.05;0.93;;;20.70;67.50;;;;;;5012932;28;20290;-54
2023/04/15 01:37:28;;;;;;;1.23;0.80;;;20.70;67.50;;;;;;5012283;28;20215;-57
2023/04/15 01:39:56;;;;;;;0.90;0.70;;;20.70;67.40;;;;;;5023525;28;20266;-54
2023/04/15 01:42:22;;;;;;;1.00;0.80;;;20.70;67.60;;;;;;5011511;28;20223;-57
2023/04/15 01:44:50;;;;;;;0.90;0.80;;;20.70;67.50;;;;;;5008594;28;20204;-57
2023/04/15 01:47:17;;;;;;;1.00;0.80;;;20.70;67.50;;;;;;5017583;28;20296;-52
2023/04/15 01:49:44;;;;;;;2.35;0.98;;;20.70;67.50;;;;;;5018287;28;20196;-56
2023/04/15 01:52:11;;;;;;;0.95;0.77;;;20.70;67.50;;;;;;5010831;28;20291;-52
2023/04/15 01:54:37;;;;;;;1.25;0.80;;;20.70;67.40;;;;;;5019916;28;20220;-52
2023/04/15 01:57:04;;;;;;;0.90;0.70;;;20.70;67.40;;;;;;5019919;28;20196;-52
2023/04/15 01:59:31;;;;;;;0.90;0.70;;;20.70;67.40;;;;;;5014735;28;20204;-55
2023/04/15 02:02:00;;;;;;;1.30;1.20;;;20.70;67.50;;;;;;5017075;28;20746;-52
2023/04/15 02:04:27;;;;;;;1.20;0.80;;;20.70;67.30;;;;;;5018202;28;20537;-54
2023/04/15 02:06:53;;;;;;;1.00;0.80;;;20.70;67.30;;;;;;5016101;28;20223;-56
2023/04/15 02:09:20;;;;;;;1.90;0.80;;;20.70;67.40;;;;;;5010354;28;20734;-56
2023/04/15 02:11:47;;;;;;;1.10;0.80;;;20.70;67.30;;;;;;5013029;28;20616;-54
2023/04/15 02:14:13;;;;;;;0.90;0.80;;;20.70;67.30;;;;;;5011552;28;20192;-53
2023/04/15 02:16:40;;;;;;;1.65;0.90;;;20.70;67.30;;;;;;5016805;28;20616;-55
2023/04/15 02:19:08;;;;;;;1.00;0.77;;;20.70;67.40;;;;;;5015552;28;20637;-57
2023/04/15 02:21:35;;;;;;;0.90;0.70;;;20.70;67.40;;;;;;5015726;28;20223;-55
2023/04/15 02:24:03;;;;;;;1.20;0.90;;;20.70;67.40;;;;;;5020224;28;20262;-55
2023/04/15 02:26:31;;;;;;;1.00;0.70;;;20.70;67.50;;;;;;5011080;28;20898;-57
2023/04/15 02:28:58;;;;;;;0.90;0.70;;;20.70;67.50;;;;;;5009685;28;20279;-52
2023/04/15 02:31:25;;;;;;;0.95;0.75;;;20.70;67.30;;;;;;5008982;28;20203;-52
2023/04/15 02:33:51;;;;;;;1.20;0.80;;;20.70;67.40;;;;;;5012192;28;20929;-57
2023/04/15 02:36:20;;;;;;;1.05;0.80;;;20.70;67.40;;;;;;5017856;28;20200;-54
2023/04/15 02:38:47;;;;;;;2.25;0.80;;;20.70;67.30;;;;;;5008569;28;20319;-54
2023/04/15 02:41:13;;;;;;;1.05;0.77;;;20.70;67.30;;;;;;5021913;28;20220;-55
2023/04/15 02:43:40;;;;;;;0.80;0.70;;;20.70;67.30;;;;;;5020360;28;20212;-53
2023/04/15 02:46:07;;;;;;;0.93;0.80;;;20.70;67.30;;;;;;5016032;28;20197;-55
2023/04/15 02:48:34;;;;;;;1.38;0.90;;;20.60;67.10;;;;;;5011944;28;20209;-52
2023/04/15 02:51:14;;;;;;;1.02;0.80;;;20.60;67.10;;;;;;5028514;28;20207;-55
2023/04/15 02:53:42;;;;;;;1.00;0.80;;;20.70;67.30;;;;;;5021233;28;20211;-54
2023/04/15 02:56:10;;;;;;;1.00;0.70;;;20.60;67.10;;;;;;5025099;28;20196;-55
2023/04/15 02:58:37;;;;;;;1.13;0.70;;;20.60;67.10;;;;;;5017616;28;20207;-57
2023/04/15 03:01:03;;;;;;;2.55;0.82;;;20.60;67.10;;;;;;5019873;28;20224;-57
2023/04/15 03:03:30;;;;;;;1.00;0.80;;;20.60;67.10;;;;;;5020135;28;20197;-52
2023/04/15 03:05:57;;;;;;;1.33;0.90;;;20.60;67.10;;;;;;5018334;28;20715;-57
2023/04/15 03:08:23;;;;;;;0.90;0.70;;;20.60;67.20;;;;;;5017257;28;20570;-56
2023/04/15 03:10:53;;;;;;;1.23;0.90;;;20.60;67.20;;;;;;5013687;28;20560;-53
2023/04/15 03:13:20;;;;;;;1.30;0.88;;;20.70;67.40;;;;;;5017643;28;20203;-56
2023/04/15 03:15:47;;;;;;;1.00;0.80;;;20.60;67.30;;;;;;5015027;28;20200;-52
2023/04/15 03:18:14;;;;;;;1.00;0.80;;;20.70;67.30;;;;;;5016520;28;20219;-58
2023/04/15 03:20:41;;;;;;;1.05;0.95;;;20.60;67.10;;;;;;5017763;28;20206;-52
2023/04/15 03:23:07;;;;;;;0.93;0.70;;;20.60;67.10;;;;;;5021534;28;20276;-54
2023/04/15 03:25:36;;;;;;;1.25;0.88;;;20.60;67.10;;;;;;5027382;28;20196;-54
2023/04/15 03:28:04;;;;;;;1.05;0.90;;;20.60;67.10;;;;;;5020842;28;20199;-53
2023/04/15 03:30:31;;;;;;;1.10;0.95;;;20.60;67.10;;;;;;5012178;28;20270;-55
2023/04/15 03:32:57;;;;;;;1.00;0.80;;;20.60;67.10;;;;;;5018589;28;20335;-57
2023/04/15 03:35:24;;;;;;;0.90;0.80;;;20.60;67.10;;;;;;5016184;28;20194;-54
2023/04/15 03:37:51;;;;;;;0.80;0.70;;;20.60;67.00;;;;;;5031267;28;20197;-53
2023/04/15 03:40:17;;;;;;;1.27;0.98;;;20.60;67.00;;;;;;5013311;28;20243;-54
2023/04/15 03:42:44;;;;;;;0.90;0.70;;;20.60;67.00;;;;;;5022593;28;20224;-56
2023/04/15 03:45:12;;;;;;;1.10;0.75;;;20.60;67.00;;;;;;5013441;28;20715;-55
2023/04/15 03:47:39;;;;;;;1.02;0.80;;;20.60;67.10;;;;;;5019644;28;20439;-54
2023/04/15 03:50:07;;;;;;;1.10;0.80;;;20.60;67.00;;;;;;5016746;28;20254;-56
2023/04/15 03:52:34;;;;;;;1.17;0.90;;;20.60;67.10;;;;;;5014293;28;20605;-58
2023/04/15 03:55:01;;;;;;;1.05;0.77;;;20.60;67.00;;;;;;5013344;28;20204;-55
2023/04/15 03:57:27;;;;;;;1.15;0.85;;;20.60;67.00;;;;;;5009957;28;20201;-58
2023/04/15 03:59:54;;;;;;;1.17;0.70;;;20.60;67.10;;;;;;5015142;28;20200;-56
2023/04/15 04:02:22;;;;;;;1.00;0.70;;;20.60;67.10;;;;;;5016864;28;20249;-56
2023/04/15 04:04:49;;;;;;;1.00;0.80;;;20.60;67.10;;;;;;5012327;28;20293;-55
2023/04/15 04:07:16;;;;;;;0.80;0.60;;;20.60;67.00;;;;;;5010669;28;20323;-59
2023/04/15 04:09:43;;;;;;;1.25;0.80;;;20.60;67.00;;;;;;5007163;28;20197;-55
2023/04/15 04:12:10;;;;;;;1.00;0.80;;;20.60;67.00;;;;;;5018168;28;20262;-57
2023/04/15 04:14:36;;;;;;;1.10;0.90;;;20.60;67.00;;;;;;5018674;28;20220;-60
2023/04/15 04:17:03;;;;;;;1.00;0.85;;;20.60;67.10;;;;;;5013723;28;20277;-55
2023/04/15 04:19:31;;;;;;;1.00;0.80;;;20.60;67.00;;;;;;5023943;28;20204;-55
2023/04/15 04:21:58;;;;;;;1.15;0.90;;;20.60;67.00;;;;;;5025926;28;20282;-54
2023/04/15 04:24:25;;;;;;;1.13;0.75;;;20.60;67.00;;;;;;5012494;28;20201;-57
2023/04/15 04:26:51;;;;;;;1.00;0.80;;;20.60;66.90;;;;;;5021733;28;20201;-53
2023/04/15 04:29:18;;;;;;;1.02;0.70;;;20.60;67.00;;;;;;5005894;28;20672;-55
2023/04/15 04:31:45;;;;;;;1.10;0.90;;;20.50;67.00;;;;;;5007721;28;20657;-53
2023/04/15 04:34:12;;;;;;;1.00;0.80;;;20.60;67.00;;;;;;5014434;28;20204;-56
2023/04/15 04:36:40;;;;;;;1.10;0.82;;;20.50;66.90;;;;;;5015949;28;20214;-53
2023/04/15 04:39:07;;;;;;;1.00;0.70;;;20.60;67.00;;;;;;5010841;28;20676;-53
2023/04/15 04:41:33;;;;;;;0.85;0.68;;;20.60;66.90;;;;;;5019864;28;20224;-54
2023/04/15 04:44:00;;;;;;;1.00;0.80;;;20.50;66.80;;;;;;5019189;28;20366;-55
2023/04/15 04:46:27;;;;;;;1.40;0.85;;;20.60;66.90;;;;;;5011433;28;20197;-52
2023/04/15 04:48:54;;;;;;;0.95;0.70;;;20.60;66.90;;;;;;5020048;28;20193;-54
2023/04/15 04:51:20;;;;;;;1.05;0.75;;;20.60;66.90;;;;;;5018155;28;20653;-56
2023/04/15 04:53:48;;;;;;;0.85;0.68;;;20.50;66.80;;;;;;5016935;28;20205;-53
2023/04/15 04:56:15;;;;;;;1.00;0.77;;;20.50;66.80;;;;;;5020716;28;20199;-53
2023/04/15 04:58:42;;;;;;;0.90;0.70;;;20.50;66.90;;;;;;5015216;28;21133;-55
2023/04/15 05:01:08;;;;;;;1.00;0.77;;;20.50;66.80;;;;;;5015093;28;20621;-52
2023/04/15 05:03:35;;;;;;;1.00;0.80;;;20.50;66.80;;;;;;5022047;28;20290;-56
2023/04/15 05:06:05;;;;;;;0.90;0.70;;;20.50;66.80;;;;;;5009648;28;20687;-55
2023/04/15 05:08:31;;;;;;;1.00;0.70;;;20.50;66.80;;;;;;5009423;28;20199;-54
2023/04/15 05:10:59;;;;;;;0.90;0.80;;;20.50;66.80;;;;;;5017339;28;20248;-53
2023/04/15 05:13:26;;;;;;;0.80;0.70;;;20.50;66.80;;;;;;5013861;28;20732;-55
2023/04/15 05:15:53;;;;;;;1.00;0.70;;;20.50;66.80;;;;;;5011143;28;20538;-56
2023/04/15 05:18:19;;;;;;;1.00;0.80;;;20.50;66.80;;;;;;5012515;28;20193;-53
2023/04/15 05:20:48;;;;;;;1.17;0.80;;;20.60;66.80;;;;;;5018387;28;20288;-59
2023/04/15 05:23:16;;;;;;;1.20;1.00;;;20.50;66.70;;;;;;5018653;28;20224;-55
2023/04/15 05:25:43;;;;;;;1.10;0.80;;;20.60;67.60;;;;;;5017742;28;20212;-57
2023/04/15 05:28:11;;;;;;;0.90;0.70;;;20.60;66.80;;;;;;5014856;28;20201;-56
2023/04/15 05:30:38;;;;;;;0.90;0.70;;;20.60;66.80;;;;;;5016949;28;20691;-53
2023/04/15 05:33:05;;;;;;;0.90;0.75;;;20.60;66.70;;;;;;5021124;28;20204;-55
2023/04/15 05:35:31;;;;;;;0.90;0.70;;;20.60;66.80;;;;;;5014818;28;20230;-53
2023/04/15 05:37:58;;;;;;;0.85;0.65;;;20.60;66.70;;;;;;5015547;28;20280;-53
2023/04/15 05:40:25;;;;;;;1.00;0.75;;;20.60;66.70;;;;;;5012603;28;20257;-58
2023/04/15 05:42:52;;;;;;;0.90;0.68;;;20.60;66.60;;;;;;5015764;28;20231;-52
2023/04/15 05:45:20;;;;;;;0.98;0.70;;;20.60;66.60;;;;;;5008359;28;20208;-53
2023/04/15 05:47:49;;;;;;;0.90;0.80;;;20.60;66.60;;;;;;5018072;28;20634;-58
2023/04/15 05:50:16;;;;;;;0.90;0.80;;;20.70;66.60;;;;;;5014668;28;20279;-56
2023/04/15 05:52:42;;;;;;;0.90;0.80;;;20.60;66.50;;;;;;5018486;28;20209;-53
2023/04/15 05:55:09;;;;;;;1.13;0.80;;;20.60;66.50;;;;;;5011748;28;20628;-55
2023/04/15 05:57:36;;;;;;;0.95;0.75;;;20.60;66.50;;;;;;5020420;28;20211;-55
2023/04/15 06:00:04;;;;;;;1.20;0.82;;;20.60;66.50;;;;;;5015129;28;20247;-56
2023/04/15 06:02:32;;;;;;;1.00;0.80;;;20.70;66.60;;;;;;5012870;28;20312;-56
2023/04/15 06:04:59;;;;;;;0.93;0.80;;;20.60;66.50;;;;;;5021519;28;20200;-57
2023/04/15 06:07:26;;;;;;;0.95;0.73;;;20.70;66.60;;;;;;5017829;28;20324;-55
2023/04/15 06:09:53;;;;;;;1.02;0.80;;;20.70;66.60;;;;;;5007706;28;20208;-56
2023/04/15 06:12:19;;;;;;;1.00;0.90;;;20.70;66.60;;;;;;5016691;28;20250;-56
2023/04/15 06:14:46;;;;;;;1.00;0.70;;;20.70;66.50;;;;;;5008585;28;20197;-57
2023/04/15 06:17:13;;;;;;;0.90;0.60;;;20.80;66.60;;;;;;5012094;28;20493;-57
2023/04/15 06:19:41;;;;;;;0.98;0.80;;;20.80;66.60;;;;;;5020485;28;20200;-56
2023/04/15 06:22:09;;;;;;;0.90;0.70;;;20.80;66.50;;;;;;5017897;28;20228;-55
2023/04/15 06:24:35;;;;;;;0.90;0.70;;;20.80;66.60;;;;;;5020418;28;20207;-55
2023/04/15 06:27:02;;;;;;;0.90;0.60;;;20.80;66.50;;;;;;5006199;28;20776;-57
2023/04/15 06:29:29;;;;;;;0.90;0.70;;;20.90;66.60;;;;;;5005103;28;20200;-58
2023/04/15 06:31:56;;;;;;;1.08;0.80;;;20.90;66.50;;;;;;5013945;28;20201;-57
2023/04/15 06:34:23;;;;;;;1.00;0.70;;;20.90;66.50;;;;;;5014052;28;20401;-58
2023/04/15 06:36:51;;;;;;;0.90;0.70;;;20.90;66.50;;;;;;5005936;28;20192;-56
2023/04/15 06:39:17;;;;;;;0.90;0.70;;;20.90;66.40;;;;;;5014237;28;20200;-54
2023/04/15 06:41:44;;;;;;;0.90;0.80;;;20.90;66.40;;;;;;5007267;28;20212;-56
2023/04/15 06:44:11;;;;;;;1.10;0.70;;;20.90;66.40;;;;;;5005960;28;20219;-58
2023/04/15 06:46:38;;;;;;;0.90;0.70;;;20.90;66.40;;;;;;5010573;28;20677;-53
2023/04/15 06:49:05;;;;;;;0.90;0.70;;;20.90;66.40;;;;;;5014122;28;20197;-56
2023/04/15 06:51:31;;;;;;;1.75;1.02;;;20.90;67.10;;;;;;5009653;28;20269;-58
2023/04/15 06:53:59;;;;;;;0.90;0.80;;;20.90;66.30;;;;;;5008140;28;20204;-55
2023/04/15 06:56:26;;;;;;;1.00;0.80;;;21.00;66.40;;;;;;5014213;28;20189;-54
2023/04/15 06:58:53;;;;;;;1.00;0.70;;;21.00;66.40;;;;;;5014020;28;20197;-56
2023/04/15 07:01:20;;;;;;;0.88;0.70;;;21.00;66.40;;;;;;5015998;28;20950;-55
2023/04/15 07:03:46;;;;;;;0.90;0.70;;;21.00;66.30;;;;;;5012687;28;20217;-56
2023/04/15 07:06:13;;;;;;;0.90;0.60;;;21.00;66.30;;;;;;5005961;28;20200;-60
2023/04/15 07:08:40;;;;;;;0.90;0.70;;;21.00;66.30;;;;;;5014464;28;20201;-58
2023/04/15 07:11:08;;;;;;;0.90;0.70;;;21.00;66.20;;;;;;5012294;28;20250;-57
2023/04/15 07:13:35;;;;;;;1.00;0.70;;;21.00;66.20;;;;;;5007717;28;20201;-56
2023/04/15 07:16:02;;;;;;;0.90;0.70;;;21.00;66.20;;;;;;5012196;28;20255;-56
2023/04/15 07:18:29;;;;;;;1.02;0.80;;;21.00;66.20;;;;;;5006865;28;20193;-56
2023/04/15 07:20:56;;;;;;;0.90;0.70;;;21.00;66.20;;;;;;5010768;28;20200;-53
2023/04/15 07:23:23;;;;;;;1.08;0.80;;;21.00;66.10;;;;;;5012700;28;20228;-56
2023/04/15 07:25:50;;;;;;;1.08;0.80;;;21.00;66.20;;;;;;5018808;28;20286;-57
2023/04/15 07:28:18;;;;;;;1.50;0.80;;;21.00;66.50;;;;;;5012643;28;20204;-58
2023/04/15 07:30:45;;;;;;;1.67;0.80;;;21.00;68.00;;;;;;5006349;28;20212;-56
2023/04/15 07:33:12;;;;;;;1.13;0.98;;;21.00;67.20;;;;;;5012718;28;20692;-54
2023/04/15 07:35:38;;;;;;;1.60;0.80;;;21.00;67.50;;;;;;5008573;28;20201;-54
2023/04/15 07:38:05;;;;;;;2.75;0.93;;;21.00;67.60;;;;;;5007027;28;20207;-52
2023/04/15 07:40:33;;;;;;;1.63;1.00;;;21.00;67.40;;;;;;5015550;28;20196;-55
2023/04/15 07:42:59;;;;;;;2.10;0.80;;;21.00;67.50;;;;;;5017901;28;20227;-55
2023/04/15 07:45:27;;;;;;;1.20;0.80;;;21.00;67.50;;;;;;5009083;28;20460;-54
2023/04/15 07:47:54;;;;;;;1.08;0.90;;;21.10;67.50;;;;;;5015126;28;20192;-55
2023/04/15 07:50:21;;;;;;;1.00;0.80;;;21.00;67.30;;;;;;5012710;28;20203;-52
2023/04/15 07:52:49;;;;;;;1.70;0.70;;;21.10;67.40;;;;;;5018043;28;20215;-56
2023/04/15 07:55:18;;;;;;;1.05;0.70;;;21.10;67.40;;;;;;5022751;28;20196;-55
2023/04/15 07:57:46;;;;;;;1.35;1.00;;;21.10;67.30;;;;;;5013140;28;20580;-54
2023/04/15 08:00:15;;;;;;;1.65;0.73;;;21.10;67.20;;;;;;5004215;28;20204;-58
2023/04/15 08:02:44;;;;;;;1.10;0.73;;;21.10;67.10;;;;;;5015886;28;20220;-55
2023/04/15 08:05:10;;;;;;;1.15;0.85;;;21.10;67.10;;;;;;5020586;28;20636;-56
2023/04/15 08:07:38;;;;;;;1.88;0.82;;;21.10;67.00;;;;;;5010496;28;20200;-58
2023/04/15 08:10:05;;;;;;;1.35;0.70;;;21.10;67.00;;;;;;5013956;28;20205;-53
2023/04/15 08:12:32;;;;;;;0.95;0.77;;;21.10;67.00;;;;;;5016123;28;20213;-55
2023/04/15 08:14:59;;;;;;;1.00;0.80;;;21.10;67.00;;;;;;5018144;28;20196;-53
2023/04/15 08:17:27;;;;;;;1.17;0.90;;;21.10;67.00;;;;;;5024376;28;20204;-55
2023/04/15 08:19:55;;;;;;;1.63;0.80;;;21.20;67.90;;;;;;5020778;28;20226;-55
2023/04/15 08:22:21;;;;;;;1.50;0.80;;;21.20;67.00;;;;;;5012979;28;20221;-54
2023/04/15 08:24:48;;;;;;;0.90;0.60;;;21.10;67.70;;;;;;5022435;28;20217;-58
2023/04/15 08:27:15;;;;;;;1.10;0.80;;;21.10;66.90;;;;;;5013168;28;20200;-55
2023/04/15 08:29:42;;;;;;;3.28;0.80;;;21.10;66.90;;;;;;5003860;28;20221;-55
2023/04/15 08:32:09;;;;;;;1.00;0.80;;;21.10;66.90;;;;;;5014609;28;20200;-57
2023/04/15 08:34:36;;;;;;;1.23;0.90;;;21.20;67.00;;;;;;5018122;28;20296;-54
2023/04/15 08:37:05;;;;;;;1.42;1.08;;;21.20;67.10;;;;;;5015279;28;20823;-55
2023/04/15 08:39:32;;;;;;;1.45;0.80;;;21.20;67.10;;;;;;5015906;28;20228;-55
2023/04/15 08:42:01;;;;;;;1.20;0.80;;;21.20;67.10;;;;;;5025106;28;20192;-56
2023/04/15 08:44:31;;;;;;;1.10;1.00;;;21.20;67.10;;;;;;5011578;28;20220;-55
2023/04/15 08:47:01;;;;;;;1.20;0.80;;;21.20;67.20;;;;;;5007878;28;20202;-59
2023/04/15 08:49:29;;;;;;;1.00;0.80;;;21.20;67.30;;;;;;5008870;28;20255;-55
2023/04/15 08:51:58;;;;;;;1.00;0.70;;;21.20;67.40;;;;;;5015594;28;20204;-53
2023/04/15 08:54:26;;;;;;;0.98;0.80;;;21.20;67.50;;;;;;5018731;28;20201;-56
2023/04/15 08:56:54;;;;;;;0.95;0.80;;;21.20;67.60;;;;;;5008956;28;20296;-57
2023/04/15 08:59:21;;;;;;;1.20;0.68;;;21.20;67.60;;;;;;5014852;28;20200;-55
2023/04/15 09:01:49;;;;;;;1.00;0.80;;;21.20;67.80;;;;;;5010506;28;20190;-53
2023/04/15 09:04:17;;;;;;;2.08;0.82;;;21.20;67.80;;;;;;5019842;28;20290;-53
2023/04/15 09:06:44;;;;;;;1.15;0.70;;;21.20;67.60;;;;;;5013150;28;20200;-54
2023/04/15 09:09:13;;;;;;;1.10;0.80;;;21.20;67.50;;;;;;5012749;28;20193;-57
2023/04/15 09:11:41;;;;;;;1.15;0.77;;;21.20;67.40;;;;;;5008044;28;22166;-57
2023/04/15 09:14:07;;;;;;;1.08;0.80;;;21.20;67.30;;;;;;5010260;28;20204;-54
2023/04/15 09:16:58;;;;;;;1.87;0.90;;;21.20;67.30;;;;;;5007574;28;20209;-54
2023/04/15 09:19:26;;;;;;;0.90;0.70;;;21.20;67.30;;;;;;5008681;28;20951;-58
2023/04/15 09:21:54;;;;;;;0.80;0.70;;;21.20;67.30;;;;;;5012075;28;20220;-53
2023/04/15 09:24:21;;;;;;;2.65;0.93;;;21.20;67.20;;;;;;5023830;28;20228;-59
2023/04/15 09:26:53;;;;;;;1.30;0.70;;;21.20;67.20;;;;;;5007414;28;20201;-55
2023/04/15 09:29:19;;;;;;;1.00;0.80;;;21.20;67.10;;;;;;5014563;28;20606;-58
2023/04/15 09:31:46;;;;;;;1.30;0.95;;;21.20;67.20;;;;;;5018138;28;20211;-53
2023/04/15 09:34:13;;;;;;;1.00;0.80;;;21.20;67.20;;;;;;5020041;28;20204;-54
2023/04/15 09:36:53;;;;;;;0.80;0.70;;;21.20;67.20;;;;;;5015708;28;20263;-55
2023/04/15 09:39:20;;;;;;;1.70;0.77;;;21.20;67.40;;;;;;5011051;28;20192;-55
2023/04/15 09:42:03;;;;;;;1.23;0.88;;;21.20;67.40;;;;;;5008331;28;20291;-56
2023/04/15 09:44:30;;;;;;;1.75;0.85;;;21.20;67.30;;;;;;5009558;28;20718;-54
2023/04/15 09:46:56;;;;;;;4.25;1.00;;;21.30;67.40;;;;;;5011234;28;20209;-52
2023/04/15 09:49:24;;;;;;;6.00;1.02;;;21.30;67.60;;;;;;5012182;28;20199;-58
2023/04/15 09:51:51;;;;;;;2.35;0.93;;;21.30;67.50;;;;;;5015077;28;20189;-56
2023/04/15 09:54:20;;;;;;;1.13;1.00;;;21.30;67.50;;;;;;5019650;28;20604;-58
2023/04/15 09:56:49;;;;;;;3.33;0.80;;;21.30;67.50;;;;;;5014345;28;20292;-52
2023/04/15 09:59:16;;;;;;;1.25;0.90;;;21.20;67.40;;;;;;5008798;28;20566;-55
2023/04/15 10:01:43;;;;;;;2.90;1.00;;;21.30;67.50;;;;;;5005342;28;20204;-53
2023/04/15 10:04:10;;;;;;;1.87;0.77;;;21.30;67.50;;;;;;5015220;28;20872;-53
2023/04/15 10:06:37;;;;;;;2.20;0.90;;;21.30;67.50;;;;;;5007835;28;20510;-53
2023/04/15 10:09:05;;;;;;;1.20;0.80;;;21.20;67.40;;;;;;5008586;28;20467;-55
2023/04/15 10:11:33;;;;;;;1.35;0.75;;;21.30;67.50;;;;;;5012735;28;20264;-54
2023/04/15 10:14:01;;;;;;;1.30;0.82;;;21.30;67.50;;;;;;5012091;28;20608;-56
2023/04/15 10:16:29;;;;;;;1.00;0.75;;;21.30;67.50;;;;;;5017717;28;20582;-57
2023/04/15 10:18:57;;;;;;;0.90;0.70;;;;;;;;;;5017040;28;20269;-54
2023/04/15 10:21:24;;;;;;;1.42;0.90;;;21.30;66.80;;;;;;5009550;28;20743;-56
2023/04/15 10:23:51;;;;;;;0.90;0.70;;;21.30;67.50;;;;;;5013375;28;20221;-54
2023/04/15 10:26:18;;;;;;;0.90;0.70;;;21.30;67.50;;;;;;5019491;28;20192;-54
2023/04/15 10:28:47;;;;;;;1.03;0.70;;;21.30;67.50;;;;;;5006894;28;20201;-56
2023/04/15 10:31:17;;;;;;;1.50;1.02;;;21.30;67.50;;;;;;5018418;28;20459;-56
2023/04/15 10:33:46;;;;;;;0.90;0.70;;;21.30;67.50;;;;;;5023308;28;20209;-54
2023/04/15 10:36:13;;;;;;;0.90;0.70;;;21.30;67.50;;;;;;5022412;28;20242;-55
2023/04/15 10:38:42;;;;;;;1.00;0.90;;;21.30;67.50;;;;;;5020772;28;20200;-58
2023/04/15 10:41:17;;;;;;;2.42;0.80;;;21.30;67.50;;;;;;5018149;28;20196;-52
2023/04/15 10:43:52;;;;;;;1.00;0.80;;;21.30;67.50;;;;;;5018128;28;20231;-55
2023/04/15 10:46:23;;;;;;;1.00;0.80;;;21.30;67.40;;;;;;5015755;28;20463;-51
2023/04/15 10:48:51;;;;;;;1.60;1.25;;;21.20;67.30;;;;;;5022755;28;20239;-56
2023/04/15 10:51:28;;;;;;;1.50;0.80;;;21.20;67.10;;;;;;5014246;28;20193;-54
2023/04/15 10:53:58;;;;;;;3.63;1.08;;;21.20;67.20;;;;;;5005695;28;21222;-58
2023/04/15 10:56:24;;;;;;;3.30;1.10;;;21.20;67.00;;;;;;5011686;28;20196;-52
2023/04/15 10:58:51;;;;;;;4.72;1.05;;;21.20;66.80;;;;;;5015802;28;20498;-58
2023/04/15 11:01:22;;;;;;;1.42;1.00;;;21.20;66.80;;;;;;5012545;28;20236;-55
2023/04/15 11:03:49;;;;;;;2.10;0.90;;;21.20;67.20;;;;;;5018576;28;20256;-52
2023/04/15 11:06:16;;;;;;;2.85;1.00;;;21.20;67.10;;;;;;5021387;28;20458;-57
2023/04/15 11:08:58;;;;;;;1.83;1.25;;;21.20;67.10;;;;;;5010117;28;20212;-52
2023/04/15 11:12:05;;;;;;;1.00;0.73;;;21.20;67.10;;;;;;5022024;28;20188;-55
2023/04/15 11:14:33;;;;;;;1.07;0.80;;;21.20;67.10;;;;;;5011693;28;20214;-57
2023/04/15 11:17:01;;;;;;;6.93;0.87;;;21.20;67.00;;;;;;5016580;28;20459;-55
2023/04/15 11:19:36;;;;;;;2.38;0.90;;;21.30;67.10;;;;;;5015241;28;20471;-59
2023/04/15 11:22:07;;;;;;;1.00;0.80;;;21.30;67.10;;;;;;5009089;28;20315;-61
2023/04/15 11:24:34;;;;;;;1.25;0.80;;;21.30;67.30;;;;;;5016234;28;20418;-61
2023/04/15 11:27:02;;;;;;;1.30;0.90;;;21.30;67.30;;;;;;5020833;28;20200;-61
2023/04/15 11:29:30;;;;;;;1.60;0.90;;;21.30;67.50;;;;;;5014346;28;20568;-60
2023/04/15 11:32:05;;;;;;;3.00;0.90;;;21.40;67.70;;;;;;5026832;28;20279;-61
2023/04/15 11:34:32;;;;;;;2.47;0.95;;;21.40;67.90;;;;;;5020813;28;21006;-58
2023/04/15 11:36:59;;;;;;;1.33;1.00;;;21.40;67.80;;;;;;5026738;28;20192;-56
2023/04/15 11:39:28;;;;;;;1.30;1.07;;;21.40;68.00;;;;;;5028837;28;20204;-58
2023/04/15 11:41:55;;;;;;;0.87;0.70;;;21.50;68.10;;;;;;5015764;28;20466;-55
2023/04/15 11:44:22;;;;;;;3.97;0.80;;;21.50;68.20;;;;;;5027420;28;20536;-64
2023/04/15 11:46:48;;;;;;;8.43;0.90;;;21.50;68.20;;;;;;5020850;28;20467;-59
2023/04/15 11:49:28;;;;;;;0.80;0.60;;;21.50;68.20;;;;;;5024688;28;20974;-60
2023/04/15 11:51:54;;;;;;;1.77;0.87;;;21.60;68.50;;;;;;5027874;28;20467;-63
2023/04/15 11:54:21;;;;;;;1.57;1.10;;;21.60;68.20;;;;;;5024445;28;20906;-61
2023/04/15 11:56:51;;;;;;;2.30;1.20;;;21.60;68.30;;;;;;5018895;28;20505;-54
2023/04/15 11:59:17;;;;;;;1.87;1.30;;;21.60;68.20;;;;;;5019524;28;21007;-52
2023/04/15 12:01:46;;;;;;;1.00;0.80;;;21.60;68.20;;;;;;5021851;28;20454;-51
2023/04/15 12:04:14;;;;;;;1.10;1.00;;;21.60;68.00;;;;;;5017528;28;21051;-56
2023/04/15 12:06:42;;;;;;;1.90;0.97;;;21.70;68.20;;;;;;5028847;28;20463;-59
2023/04/15 12:09:12;;;;;;;3.10;1.13;;;21.70;68.10;;;;;;5022151;28;20492;-56
2023/04/15 12:11:42;;;;;;;1.93;0.80;;;21.70;68.20;;;;;;5022443;28;20467;-62
2023/04/15 12:14:11;;;;;;;1.77;0.70;;;21.70;68.10;;;;;;5021506;28;20520;-58
2023/04/15 12:16:40;;;;;;;2.73;0.90;;;21.70;68.10;;;;;;5020553;28;20976;-58
2023/04/15 12:19:10;;;;;;;1.03;0.93;;;21.70;68.00;;;;;;5021700;28;20460;-57
2023/04/15 12:21:38;;;;;;;1.90;0.83;;;21.80;68.00;;;;;;5023835;28;20491;-59
2023/04/15 12:24:08;;;;;;;1.20;0.73;;;21.80;68.00;;;;;;5015884;28;20528;-59
2023/04/15 12:26:36;;;;;;;1.77;1.00;;;21.80;68.00;;;;;;5021879;28;21274;-56
2023/04/15 12:29:04;;;;;;;1.47;0.93;;;21.80;67.90;;;;;;5018289;28;20513;-53
2023/04/15 12:31:31;;;;;;;1.03;0.70;;;21.80;67.80;;;;;;5013965;28;20456;-51
2023/04/15 12:33:59;;;;;;;1.27;0.80;;;21.80;67.90;;;;;;5017495;28;20654;-53
2023/04/15 12:36:26;;;;;;;0.93;0.70;;;21.90;67.90;;;;;;5013650;28;20452;-52
2023/04/15 12:38:53;;;;;;;1.30;0.90;;;21.80;67.80;;;;;;5016395;28;20870;-58
2023/04/15 12:41:23;;;;;;;1.30;0.90;;;21.90;67.80;;;;;;5015878;28;20994;-65
2023/04/15 12:43:49;;;;;;;1.63;0.90;;;21.90;67.90;;;;;;5015352;28;20478;-63
2023/04/15 12:46:16;;;;;;;0.90;0.70;;;21.90;67.80;;;;;;5021629;28;20483;-58
2023/04/15 12:48:43;;;;;;;1.30;0.97;;;21.90;68.10;;;;;;5018608;28;20468;-59
2023/04/15 12:51:09;;;;;;;1.23;0.90;;;22.00;68.10;;;;;;5011293;28;20458;-55